sensor_id;sensor_type;location;lat;lon;timestamp;temperature;humidity
56542;DHT22;42438;53.174;6.730;2023-04-03T00:00:37;1.90;99.90
56542;DHT22;42438;53.174;6.730;2023-04-03T00:03:07;1.80;99.90
56542;DHT22;42438;53.174;6.730;2023-04-03T00:05:38;1.80;99.90
56542;DHT22;42438;53.174;6.730;2023-04-03T00:08:08;1.70;99.90
56542;DHT22;42438;53.174;6.730;2023-04-03T00:10:39;1.70;99.90
56542;DHT22;42438;53.174;6.730;2023-04-03T00:13:10;2.20;99.90
56542;DHT22;42438;53.174;6.730;2023-04-03T00:18:12;1.60;99.90
56542;DHT22;42438;53.174;6.730;2023-04-03T00:20:42;1.60;99.90
56542;DHT22;42438;53.174;6.730;2023-04-03T00:23:13;1.60;99.90
56542;DHT22;42438;53.174;6.730;2023-04-03T00:25:43;1.50;99.90
56542;DHT22;42438;53.174;6.730;2023-04-03T00:28:14;1.50;99.90
56542;DHT22;42438;53.174;6.730;2023-04-03T00:30:44;2.40;99.90
56542;DHT22;42438;53.174;6.730;2023-04-03T00:33:15;1.40;99.90
56542;DHT22;42438;53.174;6.730;2023-04-03T00:35:46;1.40;99.90
56542;DHT22;42438;53.174;6.730;2023-04-03T00:38:17;1.40;99.90
56542;DHT22;42438;53.174;6.730;2023-04-03T00:40:48;1.40;99.90
56542;DHT22;42438;53.174;6.730;2023-04-03T00:43:22;1.70;99.90
56542;DHT22;42438;53.174;6.730;2023-04-03T00:45:54;1.20;99.90
56542;DHT22;42438;53.174;6.730;2023-04-03T00:48:29;1.20;99.90
56542;DHT22;42438;53.174;6.730;2023-04-03T00:51:02;1.20;99.90
56542;DHT22;42438;53.174;6.730;2023-04-03T00:53:35;1.20;99.90
56542;DHT22;42438;53.174;6.730;2023-04-03T00:56:08;1.00;99.90
56542;DHT22;42438;53.174;6.730;2023-04-03T00:58:42;1.00;99.90
56542;DHT22;42438;53.174;6.730;2023-04-03T01:01:16;1.00;99.90
56542;DHT22;42438;53.174;6.730;2023-04-03T01:03:47;1.00;99.90
56542;DHT22;42438;53.174;6.730;2023-04-03T01:06:20;0.90;99.90
56542;DHT22;42438;53.174;6.730;2023-04-03T01:08:51;1.00;99.90
56542;DHT22;42438;53.174;6.730;2023-04-03T01:11:22;0.90;99.90
56542;DHT22;42438;53.174;6.730;2023-04-03T01:13:52;0.90;99.90
56542;DHT22;42438;53.174;6.730;2023-04-03T01:16:23;0.90;99.90
56542;DHT22;42438;53.174;6.730;2023-04-03T01:18:54;0.90;99.90
56542;DHT22;42438;53.174;6.730;2023-04-03T01:24:31;0.80;99.90
56542;DHT22;42438;53.174;6.730;2023-04-03T01:27:04;0.80;99.90
56542;DHT22;42438;53.174;6.730;2023-04-03T01:29:35;0.70;99.90
56542;DHT22;42438;53.174;6.730;2023-04-03T01:32:05;1.50;99.90
56542;DHT22;42438;53.174;6.730;2023-04-03T01:34:36;0.70;99.90
56542;DHT22;42438;53.174;6.730;2023-04-03T01:37:07;0.70;99.90
56542;DHT22;42438;53.174;6.730;2023-04-03T01:39:37;0.70;99.90
56542;DHT22;42438;53.174;6.730;2023-04-03T01:42:08;0.70;99.90
56542;DHT22;42438;53.174;6.730;2023-04-03T01:44:38;1.00;99.90
56542;DHT22;42438;53.174;6.730;2023-04-03T01:47:09;0.60;99.90
56542;DHT22;42438;53.174;6.730;2023-04-03T01:49:39;0.60;99.90
56542;DHT22;42438;53.174;6.730;2023-04-03T01:52:10;0.60;99.90
56542;DHT22;42438;53.174;6.730;2023-04-03T01:54:41;0.60;99.90
56542;DHT22;42438;53.174;6.730;2023-04-03T01:57:11;0.60;99.90
56542;DHT22;42438;53.174;6.730;2023-04-03T01:59:43;0.50;99.90
56542;DHT22;42438;53.174;6.730;2023-04-03T02:02:14;0.40;99.90
56542;DHT22;42438;53.174;6.730;2023-04-03T02:04:44;0.40;99.90
56542;DHT22;42438;53.174;6.730;2023-04-03T02:07:15;0.40;99.90
56542;DHT22;42438;53.174;6.730;2023-04-03T02:09:46;0.40;99.90
56542;DHT22;42438;53.174;6.730;2023-04-03T02:12:16;1.30;99.90
56542;DHT22;42438;53.174;6.730;2023-04-03T02:14:47;0.30;99.90
56542;DHT22;42438;53.174;6.730;2023-04-03T02:17:17;0.30;99.90
56542;DHT22;42438;53.174;6.730;2023-04-03T02:19:48;0.30;99.90
56542;DHT22;42438;53.174;6.730;2023-04-03T02:22:19;1.10;99.90
56542;DHT22;42438;53.174;6.730;2023-04-03T02:24:50;1.10;99.90
56542;DHT22;42438;53.174;6.730;2023-04-03T02:27:22;0.20;99.90
56542;DHT22;42438;53.174;6.730;2023-04-03T02:29:52;0.20;99.90
56542;DHT22;42438;53.174;6.730;2023-04-03T02:32:23;0.10;99.90
56542;DHT22;42438;53.174;6.730;2023-04-03T02:34:53;0.00;99.90
56542;DHT22;42438;53.174;6.730;2023-04-03T02:37:24;-0.10;99.90
56542;DHT22;42438;53.174;6.730;2023-04-03T02:39:54;-0.10;99.90
56542;DHT22;42438;53.174;6.730;2023-04-03T02:42:25;-0.30;99.90
56542;DHT22;42438;53.174;6.730;2023-04-03T02:44:55;0.30;99.90
56542;DHT22;42438;53.174;6.730;2023-04-03T02:47:26;-0.30;99.90
56542;DHT22;42438;53.174;6.730;2023-04-03T02:49:57;-0.20;99.90
56542;DHT22;42438;53.174;6.730;2023-04-03T02:52:27;-0.30;99.90
56542;DHT22;42438;53.174;6.730;2023-04-03T02:54:58;-0.30;99.90
56542;DHT22;42438;53.174;6.730;2023-04-03T02:57:28;-0.30;99.90
56542;DHT22;42438;53.174;6.730;2023-04-03T02:59:59;-0.30;99.90
56542;DHT22;42438;53.174;6.730;2023-04-03T03:05:00;-0.50;99.90
56542;DHT22;42438;53.174;6.730;2023-04-03T03:07:31;-0.50;99.90
56542;DHT22;42438;53.174;6.730;2023-04-03T03:10:02;-0.50;99.90
56542;DHT22;42438;53.174;6.730;2023-04-03T03:12:32;-0.50;99.90
56542;DHT22;42438;53.174;6.730;2023-04-03T03:15:03;-0.50;99.90
56542;DHT22;42438;53.174;6.730;2023-04-03T03:17:34;-0.50;99.90
56542;DHT22;42438;53.174;6.730;2023-04-03T03:20:06;-0.60;99.90
56542;DHT22;42438;53.174;6.730;2023-04-03T03:22:36;-0.60;99.90
56542;DHT22;42438;53.174;6.730;2023-04-03T03:25:07;-0.70;99.90
56542;DHT22;42438;53.174;6.730;2023-04-03T03:27:38;-0.70;99.90
56542;DHT22;42438;53.174;6.730;2023-04-03T03:30:08;-0.70;99.90
56542;DHT22;42438;53.174;6.730;2023-04-03T03:32:39;-0.80;99.90
56542;DHT22;42438;53.174;6.730;2023-04-03T03:35:10;-0.80;99.90
56542;DHT22;42438;53.174;6.730;2023-04-03T03:37:40;-0.80;99.90
56542;DHT22;42438;53.174;6.730;2023-04-03T03:40:11;-0.80;99.90
56542;DHT22;42438;53.174;6.730;2023-04-03T03:42:43;-0.90;99.90
56542;DHT22;42438;53.174;6.730;2023-04-03T03:45:14;-0.80;99.90
56542;DHT22;42438;53.174;6.730;2023-04-03T03:47:44;-0.90;99.90
56542;DHT22;42438;53.174;6.730;2023-04-03T03:50:15;-0.90;99.90
56542;DHT22;42438;53.174;6.730;2023-04-03T03:52:46;-0.90;99.90
56542;DHT22;42438;53.174;6.730;2023-04-03T03:55:17;-0.80;99.90
56542;DHT22;42438;53.174;6.730;2023-04-03T03:57:47;-0.90;99.90
56542;DHT22;42438;53.174;6.730;2023-04-03T04:00:18;-0.90;99.90
56542;DHT22;42438;53.174;6.730;2023-04-03T04:02:48;-0.90;99.90
56542;DHT22;42438;53.174;6.730;2023-04-03T04:05:19;-0.90;99.90
56542;DHT22;42438;53.174;6.730;2023-04-03T04:07:50;-0.90;99.90
56542;DHT22;42438;53.174;6.730;2023-04-03T04:12:52;-1.00;99.90
56542;DHT22;42438;53.174;6.730;2023-04-03T04:15:22;-1.00;99.90
56542;DHT22;42438;53.174;6.730;2023-04-03T04:17:53;-1.00;99.90
56542;DHT22;42438;53.174;6.730;2023-04-03T04:20:23;-1.10;99.90
56542;DHT22;42438;53.174;6.730;2023-04-03T04:22:55;-1.10;99.90
56542;DHT22;42438;53.174;6.730;2023-04-03T04:25:26;-1.10;99.90
56542;DHT22;42438;53.174;6.730;2023-04-03T04:27:56;-1.10;99.90
56542;DHT22;42438;53.174;6.730;2023-04-03T04:30:27;-1.10;99.90
56542;DHT22;42438;53.174;6.730;2023-04-03T04:32:57;-1.00;99.90
56542;DHT22;42438;53.174;6.730;2023-04-03T04:35:28;-1.10;99.90
56542;DHT22;42438;53.174;6.730;2023-04-03T04:37:59;-0.90;99.90
56542;DHT22;42438;53.174;6.730;2023-04-03T04:40:30;-0.70;99.90
56542;DHT22;42438;53.174;6.730;2023-04-03T04:43:00;-0.20;99.90
56542;DHT22;42438;53.174;6.730;2023-04-03T04:45:31;-0.50;99.90
56542;DHT22;42438;53.174;6.730;2023-04-03T04:48:01;-0.90;99.90
56542;DHT22;42438;53.174;6.730;2023-04-03T04:50:32;-0.90;99.90
56542;DHT22;42438;53.174;6.730;2023-04-03T04:53:03;-0.90;99.90
56542;DHT22;42438;53.174;6.730;2023-04-03T04:55:34;-1.00;99.90
56542;DHT22;42438;53.174;6.730;2023-04-03T04:58:05;-1.10;99.90
56542;DHT22;42438;53.174;6.730;2023-04-03T05:00:35;-1.00;99.90
56542;DHT22;42438;53.174;6.730;2023-04-03T05:03:06;-0.50;99.90
56542;DHT22;42438;53.174;6.730;2023-04-03T05:05:36;-1.00;99.90
56542;DHT22;42438;53.174;6.730;2023-04-03T05:08:07;-1.00;99.90
56542;DHT22;42438;53.174;6.730;2023-04-03T05:10:38;-1.00;99.90
56542;DHT22;42438;53.174;6.730;2023-04-03T05:13:11;-0.90;99.90
56542;DHT22;42438;53.174;6.730;2023-04-03T05:15:41;-1.10;99.90
56542;DHT22;42438;53.174;6.730;2023-04-03T05:18:12;-1.10;99.90
56542;DHT22;42438;53.174;6.730;2023-04-03T05:20:43;-0.70;99.90
56542;DHT22;42438;53.174;6.730;2023-04-03T05:23:13;-1.00;99.90
56542;DHT22;42438;53.174;6.730;2023-04-03T05:25:44;-1.00;99.90
56542;DHT22;42438;53.174;6.730;2023-04-03T05:28:15;-0.70;99.90
56542;DHT22;42438;53.174;6.730;2023-04-03T05:30:52;0.00;99.90
56542;DHT22;42438;53.174;6.730;2023-04-03T05:33:22;-0.40;99.90
56542;DHT22;42438;53.174;6.730;2023-04-03T05:35:53;-0.80;99.90
56542;DHT22;42438;53.174;6.730;2023-04-03T05:38:24;-1.00;99.90
56542;DHT22;42438;53.174;6.730;2023-04-03T05:40:55;-1.00;99.90
56542;DHT22;42438;53.174;6.730;2023-04-03T05:43:25;-0.90;99.90
56542;DHT22;42438;53.174;6.730;2023-04-03T05:45:56;-1.10;99.90
56542;DHT22;42438;53.174;6.730;2023-04-03T05:48:26;-1.00;99.90
56542;DHT22;42438;53.174;6.730;2023-04-03T05:50:57;-0.90;99.90
56542;DHT22;42438;53.174;6.730;2023-04-03T05:53:29;-0.90;99.90
56542;DHT22;42438;53.174;6.730;2023-04-03T05:56:01;-0.80;99.90
56542;DHT22;42438;53.174;6.730;2023-04-03T05:58:32;-0.70;99.90
56542;DHT22;42438;53.174;6.730;2023-04-03T06:01:02;-0.70;99.90
56542;DHT22;42438;53.174;6.730;2023-04-03T06:03:33;-0.70;99.90
56542;DHT22;42438;53.174;6.730;2023-04-03T06:06:04;-0.60;99.90
56542;DHT22;42438;53.174;6.730;2023-04-03T06:08:34;-0.60;99.90
56542;DHT22;42438;53.174;6.730;2023-04-03T06:11:05;-0.60;99.90
56542;DHT22;42438;53.174;6.730;2023-04-03T06:13:39;-0.50;99.90
56542;DHT22;42438;53.174;6.730;2023-04-03T06:16:11;-0.40;99.90
56542;DHT22;42438;53.174;6.730;2023-04-03T06:18:43;-0.40;99.90
56542;DHT22;42438;53.174;6.730;2023-04-03T06:21:14;-0.30;99.90
56542;DHT22;42438;53.174;6.730;2023-04-03T06:23:45;-0.20;99.90
56542;DHT22;42438;53.174;6.730;2023-04-03T06:26:16;0.00;99.90
56542;DHT22;42438;53.174;6.730;2023-04-03T06:28:46;-0.20;99.90
56542;DHT22;42438;53.174;6.730;2023-04-03T06:31:17;0.00;99.90
56542;DHT22;42438;53.174;6.730;2023-04-03T06:33:47;0.10;99.90
56542;DHT22;42438;53.174;6.730;2023-04-03T06:36:19;0.00;99.90
56542;DHT22;42438;53.174;6.730;2023-04-03T06:38:51;1.10;99.90
56542;DHT22;42438;53.174;6.730;2023-04-03T06:41:21;0.10;99.90
56542;DHT22;42438;53.174;6.730;2023-04-03T06:43:52;0.10;99.90
56542;DHT22;42438;53.174;6.730;2023-04-03T06:46:22;0.90;99.90
56542;DHT22;42438;53.174;6.730;2023-04-03T06:48:53;0.30;99.90
56542;DHT22;42438;53.174;6.730;2023-04-03T06:51:25;0.50;99.90
56542;DHT22;42438;53.174;6.730;2023-04-03T06:53:57;0.40;99.90
56542;DHT22;42438;53.174;6.730;2023-04-03T06:56:28;0.70;99.90
56542;DHT22;42438;53.174;6.730;2023-04-03T06:58:58;0.60;99.90
56542;DHT22;42438;53.174;6.730;2023-04-03T07:01:29;0.60;99.90
56542;DHT22;42438;53.174;6.730;2023-04-03T07:04:00;0.50;99.90
56542;DHT22;42438;53.174;6.730;2023-04-03T07:06:31;0.80;99.90
56542;DHT22;42438;53.174;6.730;2023-04-03T07:09:02;0.80;99.90
56542;DHT22;42438;53.174;6.730;2023-04-03T07:11:33;0.90;99.90
56542;DHT22;42438;53.174;6.730;2023-04-03T07:14:03;0.90;99.90
56542;DHT22;42438;53.174;6.730;2023-04-03T07:16:34;1.80;99.90
56542;DHT22;42438;53.174;6.730;2023-04-03T07:19:05;2.30;99.90
56542;DHT22;42438;53.174;6.730;2023-04-03T07:21:35;1.40;99.90
56542;DHT22;42438;53.174;6.730;2023-04-03T07:24:06;2.50;99.90
56542;DHT22;42438;53.174;6.730;2023-04-03T07:26:37;1.70;99.90
56542;DHT22;42438;53.174;6.730;2023-04-03T07:29:07;1.70;99.90
56542;DHT22;42438;53.174;6.730;2023-04-03T07:31:39;1.40;99.90
56542;DHT22;42438;53.174;6.730;2023-04-03T07:34:10;1.40;99.90
56542;DHT22;42438;53.174;6.730;2023-04-03T07:36:41;1.60;99.90
56542;DHT22;42438;53.174;6.730;2023-04-03T07:39:12;1.80;99.90
56542;DHT22;42438;53.174;6.730;2023-04-03T07:41:42;1.90;99.90
56542;DHT22;42438;53.174;6.730;2023-04-03T07:44:13;2.00;99.90
56542;DHT22;42438;53.174;6.730;2023-04-03T07:46:43;3.20;99.90
56542;DHT22;42438;53.174;6.730;2023-04-03T07:49:14;2.30;99.90
56542;DHT22;42438;53.174;6.730;2023-04-03T07:51:44;2.40;99.90
56542;DHT22;42438;53.174;6.730;2023-04-03T07:54:15;2.90;99.90
56542;DHT22;42438;53.174;6.730;2023-04-03T07:56:46;2.60;99.90
56542;DHT22;42438;53.174;6.730;2023-04-03T07:59:16;2.70;99.90
56542;DHT22;42438;53.174;6.730;2023-04-03T08:01:47;2.90;99.90
56542;DHT22;42438;53.174;6.730;2023-04-03T08:04:17;3.40;99.90
56542;DHT22;42438;53.174;6.730;2023-04-03T08:06:48;3.00;99.90
56542;DHT22;42438;53.174;6.730;2023-04-03T08:09:19;3.10;99.90
56542;DHT22;42438;53.174;6.730;2023-04-03T08:11:49;3.20;99.90
56542;DHT22;42438;53.174;6.730;2023-04-03T08:14:23;3.30;99.90
56542;DHT22;42438;53.174;6.730;2023-04-03T08:16:54;3.40;99.90
56542;DHT22;42438;53.174;6.730;2023-04-03T08:19:24;3.50;99.90
56542;DHT22;42438;53.174;6.730;2023-04-03T08:21:55;3.90;99.90
56542;DHT22;42438;53.174;6.730;2023-04-03T08:24:26;3.80;99.90
56542;DHT22;42438;53.174;6.730;2023-04-03T08:26:57;4.90;99.90
56542;DHT22;42438;53.174;6.730;2023-04-03T08:29:28;4.90;99.90
56542;DHT22;42438;53.174;6.730;2023-04-03T08:31:58;4.50;99.90
56542;DHT22;42438;53.174;6.730;2023-04-03T08:34:29;4.20;99.90
56542;DHT22;42438;53.174;6.730;2023-04-03T08:37:00;4.80;99.90
56542;DHT22;42438;53.174;6.730;2023-04-03T08:39:31;4.40;99.90
56542;DHT22;42438;53.174;6.730;2023-04-03T08:42:02;4.50;99.90
56542;DHT22;42438;53.174;6.730;2023-04-03T08:44:39;4.60;99.90
56542;DHT22;42438;53.174;6.730;2023-04-03T08:49:45;4.90;99.90
56542;DHT22;42438;53.174;6.730;2023-04-03T08:52:32;5.00;99.90
56542;DHT22;42438;53.174;6.730;2023-04-03T08:55:07;5.10;99.90
56542;DHT22;42438;53.174;6.730;2023-04-03T08:57:39;5.30;99.90
56542;DHT22;42438;53.174;6.730;2023-04-03T09:02:44;5.50;99.90
56542;DHT22;42438;53.174;6.730;2023-04-03T09:05:17;5.60;99.90
56542;DHT22;42438;53.174;6.730;2023-04-03T09:07:59;5.80;99.90
56542;DHT22;42438;53.174;6.730;2023-04-03T09:10:32;6.20;99.90
56542;DHT22;42438;53.174;6.730;2023-04-03T09:13:08;6.00;99.90
56542;DHT22;42438;53.174;6.730;2023-04-03T09:15:42;6.10;99.80
56542;DHT22;42438;53.174;6.730;2023-04-03T09:18:21;6.30;99.90
56542;DHT22;42438;53.174;6.730;2023-04-03T09:23:30;6.50;99.10
56542;DHT22;42438;53.174;6.730;2023-04-03T09:26:03;6.60;98.50
56542;DHT22;42438;53.174;6.730;2023-04-03T09:28:38;6.80;98.30
56542;DHT22;42438;53.174;6.730;2023-04-03T09:31:19;6.80;97.40
56542;DHT22;42438;53.174;6.730;2023-04-03T09:33:51;7.10;99.90
56542;DHT22;42438;53.174;6.730;2023-04-03T09:39:13;7.30;98.20
56542;DHT22;42438;53.174;6.730;2023-04-03T09:41:55;7.40;96.30
56542;DHT22;42438;53.174;6.730;2023-04-03T09:44:27;7.60;97.60
56542;DHT22;42438;53.174;6.730;2023-04-03T09:46:58;7.60;96.20
56542;DHT22;42438;53.174;6.730;2023-04-03T09:49:29;7.70;97.70
56542;DHT22;42438;53.174;6.730;2023-04-03T09:52:12;7.90;98.60
56542;DHT22;42438;53.174;6.730;2023-04-03T09:54:48;8.00;95.10
56542;DHT22;42438;53.174;6.730;2023-04-03T09:57:18;8.10;96.90
56542;DHT22;42438;53.174;6.730;2023-04-03T10:02:22;8.20;94.40
56542;DHT22;42438;53.174;6.730;2023-04-03T10:04:53;8.30;96.20
56542;DHT22;42438;53.174;6.730;2023-04-03T10:10:15;8.50;94.20
56542;DHT22;42438;53.174;6.730;2023-04-03T10:12:48;8.60;94.20
56542;DHT22;42438;53.174;6.730;2023-04-03T10:15:19;8.60;93.60
56542;DHT22;42438;53.174;6.730;2023-04-03T10:20:43;8.80;94.10
56542;DHT22;42438;53.174;6.730;2023-04-03T10:28:34;8.70;93.20
56542;DHT22;42438;53.174;6.730;2023-04-03T10:31:14;8.70;91.80
56542;DHT22;42438;53.174;6.730;2023-04-03T10:33:53;9.00;92.70
56542;DHT22;42438;53.174;6.730;2023-04-03T10:39:11;9.30;92.10
56542;DHT22;42438;53.174;6.730;2023-04-03T10:46:55;9.60;92.10
56542;DHT22;42438;53.174;6.730;2023-04-03T10:52:18;9.80;89.20
56542;DHT22;42438;53.174;6.730;2023-04-03T10:55:02;9.80;89.90
56542;DHT22;42438;53.174;6.730;2023-04-03T10:57:36;9.70;90.70
56542;DHT22;42438;53.174;6.730;2023-04-03T11:00:21;9.80;90.20
56542;DHT22;42438;53.174;6.730;2023-04-03T11:02:56;9.70;90.30
56542;DHT22;42438;53.174;6.730;2023-04-03T11:05:44;9.70;89.30
56542;DHT22;42438;53.174;6.730;2023-04-03T11:08:26;9.80;89.10
56542;DHT22;42438;53.174;6.730;2023-04-03T11:10:57;10.00;90.80
56542;DHT22;42438;53.174;6.730;2023-04-03T11:13:33;10.10;87.80
56542;DHT22;42438;53.174;6.730;2023-04-03T11:16:04;10.00;87.90
56542;DHT22;42438;53.174;6.730;2023-04-03T11:23:43;10.00;81.80
56542;DHT22;42438;53.174;6.730;2023-04-03T11:26:15;9.90;87.80
56542;DHT22;42438;53.174;6.730;2023-04-03T11:28:46;10.00;84.00
56542;DHT22;42438;53.174;6.730;2023-04-03T11:36:48;10.20;85.30
56542;DHT22;42438;53.174;6.730;2023-04-03T11:39:22;10.30;88.40
56542;DHT22;42438;53.174;6.730;2023-04-03T11:41:53;10.40;85.30
56542;DHT22;42438;53.174;6.730;2023-04-03T11:44:32;10.40;84.90
56542;DHT22;42438;53.174;6.730;2023-04-03T11:47:06;10.20;87.20
56542;DHT22;42438;53.174;6.730;2023-04-03T12:29:23;10.80;85.10
56542;DHT22;42438;53.174;6.730;2023-04-03T12:35:20;10.60;83.10
56542;DHT22;42438;53.174;6.730;2023-04-03T12:37:38;10.70;83.60
56542;DHT22;42438;53.174;6.730;2023-04-03T12:40:21;10.70;84.90
56542;DHT22;42438;53.174;6.730;2023-04-03T12:45:29;11.00;84.30
56542;DHT22;42438;53.174;6.730;2023-04-03T12:48:15;11.10;85.20
56542;DHT22;42438;53.174;6.730;2023-04-03T12:50:46;11.10;83.40
56542;DHT22;42438;53.174;6.730;2023-04-03T12:53:19;11.20;87.30
56542;DHT22;42438;53.174;6.730;2023-04-03T12:55:55;11.30;93.40
56542;DHT22;42438;53.174;6.730;2023-04-03T12:58:26;11.40;95.10
56542;DHT22;42438;53.174;6.730;2023-04-03T13:01:01;11.30;94.90
56542;DHT22;42438;53.174;6.730;2023-04-03T13:03:39;11.10;95.20
56542;DHT22;42438;53.174;6.730;2023-04-03T13:06:10;11.20;95.20
56542;DHT22;42438;53.174;6.730;2023-04-03T13:08:48;11.10;95.80
56542;DHT22;42438;53.174;6.730;2023-04-03T13:11:19;10.90;95.80
56542;DHT22;42438;53.174;6.730;2023-04-03T13:13:56;11.30;95.50
56542;DHT22;42438;53.174;6.730;2023-04-03T13:16:27;10.80;93.80
56542;DHT22;42438;53.174;6.730;2023-04-03T13:18:58;10.90;94.00
56542;DHT22;42438;53.174;6.730;2023-04-03T13:21:29;10.90;93.50
56542;DHT22;42438;53.174;6.730;2023-04-03T13:24:01;10.60;94.00
56542;DHT22;42438;53.174;6.730;2023-04-03T13:26:33;10.70;94.20
56542;DHT22;42438;53.174;6.730;2023-04-03T13:29:14;10.90;94.60
56542;DHT22;42438;53.174;6.730;2023-04-03T13:31:47;11.10;93.70
56542;DHT22;42438;53.174;6.730;2023-04-03T13:34:23;10.80;93.10
56542;DHT22;42438;53.174;6.730;2023-04-03T13:36:57;11.10;94.20
56542;DHT22;42438;53.174;6.730;2023-04-03T13:39:29;11.00;93.40
56542;DHT22;42438;53.174;6.730;2023-04-03T13:42:02;10.50;92.40
56542;DHT22;42438;53.174;6.730;2023-04-03T13:44:44;10.50;92.90
56542;DHT22;42438;53.174;6.730;2023-04-03T13:49:58;10.90;94.60
56542;DHT22;42438;53.174;6.730;2023-04-03T13:55:00;11.20;93.60
56542;DHT22;42438;53.174;6.730;2023-04-03T13:57:31;11.20;93.20
56542;DHT22;42438;53.174;6.730;2023-04-03T14:03:22;10.80;92.60
56542;DHT22;42438;53.174;6.730;2023-04-03T14:05:53;11.00;93.10
56542;DHT22;42438;53.174;6.730;2023-04-03T14:08:24;11.20;94.10
56542;DHT22;42438;53.174;6.730;2023-04-03T14:10:54;11.00;92.40
56542;DHT22;42438;53.174;6.730;2023-04-03T14:13:25;11.30;92.60
56542;DHT22;42438;53.174;6.730;2023-04-03T14:15:55;11.00;93.10
56542;DHT22;42438;53.174;6.730;2023-04-03T14:18:26;10.90;94.00
56542;DHT22;42438;53.174;6.730;2023-04-03T14:20:57;10.90;92.80
56542;DHT22;42438;53.174;6.730;2023-04-03T14:23:28;11.30;96.40
56542;DHT22;42438;53.174;6.730;2023-04-03T14:25:58;11.10;93.80
56542;DHT22;42438;53.174;6.730;2023-04-03T14:28:30;11.20;94.60
56542;DHT22;42438;53.174;6.730;2023-04-03T14:31:01;11.50;94.20
56542;DHT22;42438;53.174;6.730;2023-04-03T14:33:32;10.60;93.30
56542;DHT22;42438;53.174;6.730;2023-04-03T14:36:10;10.70;93.40
56542;DHT22;42438;53.174;6.730;2023-04-03T14:38:42;10.50;92.30
56542;DHT22;42438;53.174;6.730;2023-04-03T14:41:14;10.80;92.70
56542;DHT22;42438;53.174;6.730;2023-04-03T14:43:46;10.70;92.10
56542;DHT22;42438;53.174;6.730;2023-04-03T14:46:22;10.60;91.30
56542;DHT22;42438;53.174;6.730;2023-04-03T14:48:54;10.50;91.80
56542;DHT22;42438;53.174;6.730;2023-04-03T14:51:24;10.60;92.60
56542;DHT22;42438;53.174;6.730;2023-04-03T14:53:55;10.50;92.50
56542;DHT22;42438;53.174;6.730;2023-04-03T14:56:27;10.80;92.40
56542;DHT22;42438;53.174;6.730;2023-04-03T14:58:58;10.50;91.60
56542;DHT22;42438;53.174;6.730;2023-04-03T15:01:29;10.90;93.10
56542;DHT22;42438;53.174;6.730;2023-04-03T15:04:00;10.70;92.80
56542;DHT22;42438;53.174;6.730;2023-04-03T15:06:30;10.90;92.90
56542;DHT22;42438;53.174;6.730;2023-04-03T15:09:02;11.10;94.30
56542;DHT22;42438;53.174;6.730;2023-04-03T15:11:35;11.10;92.50
56542;DHT22;42438;53.174;6.730;2023-04-03T15:14:08;11.10;92.20
56542;DHT22;42438;53.174;6.730;2023-04-03T15:16:39;11.10;94.40
56542;DHT22;42438;53.174;6.730;2023-04-03T15:19:10;11.40;93.20
56542;DHT22;42438;53.174;6.730;2023-04-03T15:21:40;11.10;92.00
56542;DHT22;42438;53.174;6.730;2023-04-03T15:24:11;11.10;93.00
56542;DHT22;42438;53.174;6.730;2023-04-03T15:26:41;11.20;93.40
56542;DHT22;42438;53.174;6.730;2023-04-03T15:29:12;10.90;93.80
56542;DHT22;42438;53.174;6.730;2023-04-03T15:31:43;11.20;93.40
56542;DHT22;42438;53.174;6.730;2023-04-03T15:34:13;11.30;93.30
56542;DHT22;42438;53.174;6.730;2023-04-03T15:36:47;11.10;92.00
56542;DHT22;42438;53.174;6.730;2023-04-03T15:39:17;11.20;92.30
56542;DHT22;42438;53.174;6.730;2023-04-03T15:41:48;11.00;92.60
56542;DHT22;42438;53.174;6.730;2023-04-03T15:44:19;11.00;93.70
56542;DHT22;42438;53.174;6.730;2023-04-03T15:46:49;10.80;93.00
56542;DHT22;42438;53.174;6.730;2023-04-03T15:49:21;10.60;91.60
56542;DHT22;42438;53.174;6.730;2023-04-03T15:51:52;10.80;92.30
56542;DHT22;42438;53.174;6.730;2023-04-03T15:54:23;10.60;92.00
56542;DHT22;42438;53.174;6.730;2023-04-03T15:56:54;10.30;92.00
56542;DHT22;42438;53.174;6.730;2023-04-03T15:59:25;10.30;90.50
56542;DHT22;42438;53.174;6.730;2023-04-03T16:01:56;10.50;91.70
56542;DHT22;42438;53.174;6.730;2023-04-03T16:04:26;10.40;92.20
56542;DHT22;42438;53.174;6.730;2023-04-03T16:06:57;10.70;92.50
56542;DHT22;42438;53.174;6.730;2023-04-03T16:09:31;9.60;91.30
56542;DHT22;42438;53.174;6.730;2023-04-03T16:12:03;10.40;92.10
56542;DHT22;42438;53.174;6.730;2023-04-03T16:14:33;10.40;91.20
56542;DHT22;42438;53.174;6.730;2023-04-03T16:17:04;10.60;90.50
56542;DHT22;42438;53.174;6.730;2023-04-03T16:19:34;10.50;91.50
56542;DHT22;42438;53.174;6.730;2023-04-03T16:22:05;10.40;90.90
56542;DHT22;42438;53.174;6.730;2023-04-03T16:24:35;10.20;90.40
56542;DHT22;42438;53.174;6.730;2023-04-03T16:27:06;10.30;91.60
56542;DHT22;42438;53.174;6.730;2023-04-03T16:29:37;10.20;90.40
56542;DHT22;42438;53.174;6.730;2023-04-03T16:32:07;9.90;85.10
56542;DHT22;42438;53.174;6.730;2023-04-03T16:34:38;9.80;83.90
56542;DHT22;42438;53.174;6.730;2023-04-03T16:37:10;9.70;85.50
56542;DHT22;42438;53.174;6.730;2023-04-03T16:39:40;9.60;87.00
56542;DHT22;42438;53.174;6.730;2023-04-03T16:42:11;9.60;90.90
56542;DHT22;42438;53.174;6.730;2023-04-03T16:44:42;9.40;86.40
56542;DHT22;42438;53.174;6.730;2023-04-03T16:47:12;9.60;84.00
56542;DHT22;42438;53.174;6.730;2023-04-03T16:49:44;9.20;83.80
56542;DHT22;42438;53.174;6.730;2023-04-03T16:52:15;9.20;84.50
56542;DHT22;42438;53.174;6.730;2023-04-03T16:54:46;9.10;87.70
56542;DHT22;42438;53.174;6.730;2023-04-03T16:57:16;9.00;87.30
56542;DHT22;42438;53.174;6.730;2023-04-03T16:59:47;8.80;87.40
56542;DHT22;42438;53.174;6.730;2023-04-03T17:02:18;8.70;87.60
56542;DHT22;42438;53.174;6.730;2023-04-03T17:04:49;8.50;89.70
56542;DHT22;42438;53.174;6.730;2023-04-03T17:07:20;8.50;88.40
56542;DHT22;42438;53.174;6.730;2023-04-03T17:09:50;8.40;94.50
56542;DHT22;42438;53.174;6.730;2023-04-03T17:12:22;8.80;93.80
56542;DHT22;42438;53.174;6.730;2023-04-03T17:14:52;8.60;95.50
56542;DHT22;42438;53.174;6.730;2023-04-03T17:17:23;8.60;95.20
56542;DHT22;42438;53.174;6.730;2023-04-03T17:19:54;8.50;93.60
56542;DHT22;42438;53.174;6.730;2023-04-03T17:24:56;7.70;90.40
56542;DHT22;42438;53.174;6.730;2023-04-03T17:27:27;8.00;91.30
56542;DHT22;42438;53.174;6.730;2023-04-03T17:29:57;7.50;91.10
56542;DHT22;42438;53.174;6.730;2023-04-03T17:32:30;7.60;91.70
56542;DHT22;42438;53.174;6.730;2023-04-03T17:35:00;7.40;95.30
56542;DHT22;42438;53.174;6.730;2023-04-03T17:37:31;7.30;94.90
56542;DHT22;42438;53.174;6.730;2023-04-03T17:40:02;7.00;92.00
56542;DHT22;42438;53.174;6.730;2023-04-03T17:42:32;6.90;92.20
56542;DHT22;42438;53.174;6.730;2023-04-03T17:45:03;6.90;92.30
56542;DHT22;42438;53.174;6.730;2023-04-03T17:47:34;6.80;92.70
56542;DHT22;42438;53.174;6.730;2023-04-03T17:50:05;6.80;92.90
56542;DHT22;42438;53.174;6.730;2023-04-03T17:52:36;6.90;99.90
56542;DHT22;42438;53.174;6.730;2023-04-03T17:55:06;6.70;95.50
56542;DHT22;42438;53.174;6.730;2023-04-03T17:57:37;6.60;99.90